This is the latest recevied weather packets stored in our database for station/object N5KR. If no packets are shown the sender has not sent any weather packets the latest 10 day(s).
| Time | Temp. | Humidity | Pressure | Rain* | Wind** | Luminosity | Snow |
|---|---|---|---|---|---|---|---|
| 1777869007 | 21.11° C | 48% | 1016.4 hPa | 0 mm | - | 0 W/m² | - |
| 1777868706 | 21.11° C | 47% | 1016.5 hPa | 0 mm | - | 0 W/m² | - |
| 1777867206 | 21.67° C | 45% | 1016.5 hPa | 0 mm | - | 0 W/m² | - |
| 1777866907 | 21.67° C | 45% | 1016.5 hPa | 0 mm | - | 0 W/m² | - |
| 1777865106 | 21.67° C | 44% | 1016.5 hPa | 0 mm | - | 0 W/m² | - |
| 1777863006 | 22.22° C | 43% | 1016.2 hPa | 0 mm | - | 0 W/m² | - |
| 1777862706 | 22.22° C | 43% | 1016.3 hPa | 0 mm | - | 0 W/m² | - |
| 1777857906 | 23.89° C | 36% | 1015.9 hPa | 0 mm | - | 0 W/m² | - |
| 1777855806 | 24.44° C | 35% | 1015.7 hPa | 0 mm | - | 0 W/m² | - |
| 1777855205 | 25° C | 35% | 1015.7 hPa | 0 mm | - | 5 W/m² | - |
| 1777854006 | 25.56° C | 34% | 1015.7 hPa | 0 mm | - | 14 W/m² | - |
| 1777846805 | 27.22° C | 31% | 1016.5 hPa | 0 mm | - | 48 W/m² | - |
| 1777844705 | 28.33° C | 31% | 1016.8 hPa | 0 mm | - | 559 W/m² | - |
| 1777843806 | 28.33° C | 32% | 1017.1 hPa | 0 mm | - | 608 W/m² | - |
| 1777843205 | 28.33° C | 31% | 1017.2 hPa | 0 mm | - | 633 W/m² | - |
| 1777842606 | 28.33° C | 33% | 1017.4 hPa | 0 mm | - | 662 W/m² | - |
| 1777842305 | 28.33° C | 33% | 1017.5 hPa | 0 mm | - | 701 W/m² | - |
| 1777841705 | 28.89° C | 32% | 1017.7 hPa | 0 mm | - | 693 W/m² | - |
| 1777840505 | 28.33° C | 31% | 1018.2 hPa | 0 mm | - | 734 W/m² | - |
| 1777838705 | 27.78° C | 31% | 1018.7 hPa | 0 mm | - | 796 W/m² | - |
| 1777838406 | 28.89° C | 31% | 1018.7 hPa | 0 mm | - | 804 W/m² | - |
| 1777835405 | 28.33° C | 32% | 1019.6 hPa | 0 mm | - | 862 W/m² | - |
| 1777832706 | 27.22° C | 33% | 1020.2 hPa | 0 mm | - | 870 W/m² | - |
| 1777831505 | 26.67° C | 36% | 1020.6 hPa | 0 mm | - | 870 W/m² | - |
| 1777830605 | 26.67° C | 36% | 1020.9 hPa | 0 mm | - | 862 W/m² | - |
* Rain latest hour (hover to see other rain measurements)
** Current wind speed in m/s (hover to see current wind gust speed)